Time;durP1;ratioP1;P1;durP2;ratioP2;P2;SDS_P1;SDS_P2;PMS_P1;PMS_P2;Temp;Humidity;BMP_temperature;BMP_pressure;BME280_temperature;BME280_humidity;BME280_pressure;Samples;Min_cycle;Max_cycle;Signal;HPM_P1;HPM_P2
2024/01/02 07:25:50;;;;;;;0.00;0.00;;;4.80;99.90;;;;;;5049427;28;20509;-67
2024/01/02 07:28:16;;;;;;;0.00;0.00;;;4.80;99.90;;;;;;5053140;28;20205;-67
2024/01/02 07:30:41;;;;;;;0.00;0.00;;;4.90;99.90;;;;;;5055641;28;20472;-67
2024/01/02 07:33:07;;;;;;;0.00;0.00;;;5.10;99.90;;;;;;5049277;28;20024;-66
2024/01/02 07:35:33;;;;;;;0.00;0.00;;;5.20;99.90;;;;;;5053226;28;20032;-65
2024/01/02 07:37:58;;;;;;;0.00;0.00;;;5.20;99.90;;;;;;5055158;28;20269;-66
2024/01/02 07:40:24;;;;;;;0.00;0.00;;;5.30;99.90;;;;;;5054773;28;20492;-66
2024/01/02 07:42:51;;;;;;;0.00;0.00;;;5.40;99.90;;;;;;5048545;28;20028;-67
2024/01/02 07:45:18;;;;;;;0.00;0.00;;;5.50;99.90;;;;;;5050289;28;20040;-65
2024/01/02 07:47:44;;;;;;;;;;;5.40;99.90;;;;;;5056768;28;20105;-67
2024/01/02 07:50:09;;;;;;;0.00;0.00;;;5.40;99.90;;;;;;5049872;28;20003;-67
2024/01/02 07:52:36;;;;;;;0.00;0.00;;;5.40;99.90;;;;;;5054537;28;20075;-66
2024/01/02 07:55:03;;;;;;;0.00;0.00;;;5.50;99.90;;;;;;5055231;28;20025;-66
2024/01/02 07:57:28;;;;;;;0.00;0.00;;;5.50;99.90;;;;;;5049556;28;20025;-64
2024/01/02 07:59:54;;;;;;;0.00;0.00;;;5.50;99.90;;;;;;5054603;28;20035;-64
2024/01/02 08:02:20;;;;;;;0.00;0.00;;;5.50;99.90;;;;;;5053731;28;20021;-66
2024/01/02 08:04:45;;;;;;;0.00;0.00;;;5.50;99.90;;;;;;5053875;28;20058;-68
2024/01/02 08:07:11;;;;;;;2.07;0.33;;;5.70;99.90;;;;;;5041344;28;20413;-65
2024/01/02 08:09:37;;;;;;;0.00;0.00;;;5.70;99.90;;;;;;5033418;28;20033;-66
2024/01/02 08:12:03;;;;;;;0.00;0.00;;;5.60;99.90;;;;;;5034228;28;20033;-66
2024/01/02 08:14:28;;;;;;;0.00;0.00;;;5.70;99.90;;;;;;5032168;28;20025;-67
2024/01/02 08:16:54;;;;;;;0.00;0.00;;;5.50;99.90;;;;;;5035055;28;20040;-66
2024/01/02 08:19:19;;;;;;;0.00;0.00;;;5.50;99.90;;;;;;5031190;28;20905;-66
2024/01/02 08:21:46;;;;;;;0.00;0.00;;;5.50;99.90;;;;;;5035257;28;20040;-67
2024/01/02 08:24:12;;;;;;;;;;;5.50;99.90;;;;;;5029449;28;20577;-67
2024/01/02 08:26:37;;;;;;;0.00;0.00;;;5.50;99.90;;;;;;5032137;28;19909;-66
2024/01/02 08:29:03;;;;;;;0.00;0.00;;;5.60;99.90;;;;;;5030330;28;20029;-66
2024/01/02 08:31:29;;;;;;;0.10;0.10;;;5.70;99.90;;;;;;5035196;28;20033;-68
2024/01/02 08:33:55;;;;;;;0.00;0.00;;;5.70;99.90;;;;;;5031847;28;20049;-67
2024/01/02 08:36:21;;;;;;;0.00;0.00;;;5.70;99.90;;;;;;5024946;28;20021;-66
2024/01/02 08:38:47;;;;;;;0.00;0.00;;;5.70;99.90;;;;;;5018331;28;20393;-66
2024/01/02 08:41:12;;;;;;;0.00;0.00;;;5.70;99.90;;;;;;5020053;28;20109;-66
2024/01/02 08:43:38;;;;;;;0.00;0.00;;;5.70;99.90;;;;;;5015993;28;20068;-66
2024/01/02 08:46:03;;;;;;;0.00;0.00;;;5.70;99.90;;;;;;5018984;28;20473;-65
2024/01/02 08:48:29;;;;;;;0.00;0.00;;;5.90;99.90;;;;;;5021588;28;20041;-68
2024/01/02 08:50:55;;;;;;;0.00;0.00;;;5.90;99.90;;;;;;5019760;28;20040;-66
2024/01/02 08:53:20;;;;;;;0.00;0.00;;;6.00;99.90;;;;;;5019577;28;20532;-66
2024/01/02 08:55:46;;;;;;;0.00;0.00;;;6.20;99.90;;;;;;5015348;28;20036;-66
2024/01/02 08:58:12;;;;;;;0.00;0.00;;;6.30;99.90;;;;;;5020100;28;20029;-66
2024/01/02 09:00:37;;;;;;;0.00;0.00;;;6.30;99.90;;;;;;5017684;28;20063;-66
2024/01/02 09:03:04;;;;;;;0.00;0.00;;;6.30;99.90;;;;;;5019645;28;20068;-66
2024/01/02 09:05:29;;;;;;;0.00;0.00;;;6.30;99.90;;;;;;5019965;28;20112;-66
2024/01/02 09:07:55;;;;;;;0.00;0.00;;;6.20;99.90;;;;;;5016724;28;20029;-67
2024/01/02 09:10:22;;;;;;;0.00;0.00;;;6.40;99.90;;;;;;5017078;28;20033;-68
2024/01/02 09:12:47;;;;;;;0.00;0.00;;;6.60;99.90;;;;;;5015223;28;21346;-66
2024/01/02 09:15:13;;;;;;;0.00;0.00;;;6.80;99.90;;;;;;5019670;28;20108;-67
2024/01/02 09:17:39;;;;;;;0.00;0.00;;;6.90;99.90;;;;;;5021427;28;20021;-63
2024/01/02 09:20:05;;;;;;;0.00;0.00;;;7.00;99.90;;;;;;5012635;28;20064;-69
2024/01/02 09:22:31;;;;;;;;;;;7.10;99.90;;;;;;5017795;28;20037;-68
2024/01/02 09:24:59;;;;;;;0.00;0.00;;;7.20;99.90;;;;;;5019573;28;19912;-68
2024/01/02 09:27:28;;;;;;;0.00;0.00;;;7.30;99.90;;;;;;5019448;28;20079;-66
2024/01/02 09:29:54;;;;;;;0.00;0.00;;;7.30;99.90;;;;;;5019173;28;20087;-67
2024/01/02 09:32:20;;;;;;;0.00;0.00;;;7.40;99.90;;;;;;5020134;28;20713;-66
2024/01/02 09:34:45;;;;;;;0.00;0.00;;;7.50;99.90;;;;;;5014868;28;20614;-66
2024/01/02 09:37:12;;;;;;;0.00;0.00;;;7.50;99.90;;;;;;5018142;28;20469;-66
2024/01/02 09:39:39;;;;;;;0.00;0.00;;;7.60;99.90;;;;;;5016069;28;20360;-66
2024/01/02 09:42:13;;;;;;;;;;;7.60;99.90;;;;;;5020565;28;20040;-69
2024/01/02 09:45:17;;;;;;;0.47;0.35;;;7.50;99.90;;;;;;5018984;28;19922;-68
2024/01/02 09:47:46;;;;;;;0.00;0.00;;;7.60;99.90;;;;;;5020683;28;20018;-69
2024/01/02 09:50:21;;;;;;;0.00;0.00;;;7.40;99.90;;;;;;5014617;28;20021;-69
2024/01/02 09:52:50;;;;;;;0.00;0.00;;;7.30;99.90;;;;;;5016441;28;20076;-68
2024/01/02 09:55:38;;;;;;;0.00;0.00;;;7.20;99.90;;;;;;5017509;28;20061;-68
2024/01/02 09:58:10;;;;;;;0.00;0.00;;;7.10;99.90;;;;;;5014484;28;20113;-68
2024/01/02 10:01:07;;;;;;;0.10;0.10;;;7.10;99.90;;;;;;5020941;28;20030;-69
2024/01/02 10:03:51;;;;;;;0.00;0.00;;;7.00;99.90;;;;;;5016765;28;20544;-67
2024/01/02 10:06:38;;;;;;;0.00;0.00;;;7.10;99.90;;;;;;5014840;28;20026;-66
2024/01/02 10:09:16;;;;;;;0.00;0.00;;;7.10;99.90;;;;;;5018732;28;20048;-66
2024/01/02 10:12:01;;;;;;;0.00;0.00;;;7.10;99.90;;;;;;5013953;28;20481;-69
2024/01/02 10:14:35;;;;;;;0.05;0.05;;;7.20;99.90;;;;;;5021592;28;20478;-69
2024/01/02 10:17:07;;;;;;;0.00;0.00;;;7.10;99.90;;;;;;5020856;28;20030;-66
2024/01/02 10:19:53;;;;;;;0.00;0.00;;;7.00;99.90;;;;;;5018760;28;20115;-67
2024/01/02 10:22:51;;;;;;;0.00;0.00;;;6.90;99.90;;;;;;5015573;28;20022;-69
2024/01/02 10:25:19;;;;;;;0.00;0.00;;;7.00;99.90;;;;;;5015801;28;20043;-67
2024/01/02 10:27:52;;;;;;;0.50;0.17;;;7.00;99.90;;;;;;5014980;28;20026;-66
2024/01/02 10:30:21;;;;;;;0.00;0.00;;;7.10;99.90;;;;;;5014659;28;20025;-63
2024/01/02 10:33:10;;;;;;;0.00;0.00;;;7.10;99.90;;;;;;5017987;28;20096;-62
2024/01/02 10:35:42;;;;;;;0.00;0.00;;;7.20;99.90;;;;;;5015616;28;20030;-64
2024/01/02 10:38:33;;;;;;;0.00;0.00;;;7.10;99.90;;;;;;5014135;28;21324;-63
2024/01/02 10:41:14;;;;;;;0.00;0.00;;;7.10;99.90;;;;;;5021431;28;20024;-67
2024/01/02 10:43:58;;;;;;;0.00;0.00;;;7.10;99.90;;;;;;5018730;28;20491;-67
2024/01/02 10:46:49;;;;;;;0.00;0.00;;;6.90;99.90;;;;;;5016282;28;20458;-65
2024/01/02 10:49:20;;;;;;;0.00;0.00;;;6.90;99.90;;;;;;5021497;28;20025;-67
2024/01/02 10:51:56;;;;;;;0.00;0.00;;;7.00;99.90;;;;;;5016077;28;20029;-63
2024/01/02 10:54:32;;;;;;;2.90;1.88;;;7.00;99.90;;;;;;5011519;28;20214;-63
2024/01/02 10:57:00;;;;;;;0.05;0.05;;;7.20;99.90;;;;;;5014235;28;20021;-63
2024/01/02 10:59:36;;;;;;;0.00;0.00;;;7.10;99.90;;;;;;5014274;28;20029;-64
2024/01/02 11:02:23;;;;;;;0.00;0.00;;;7.00;99.90;;;;;;5016181;28;20024;-63
2024/01/02 11:05:11;;;;;;;0.00;0.00;;;7.00;99.90;;;;;;5017033;28;20029;-63
2024/01/02 11:07:39;;;;;;;;;;;7.00;99.90;;;;;;5018118;28;20505;-64
2024/01/02 11:10:09;;;;;;;0.00;0.00;;;6.90;99.90;;;;;;5018374;28;20047;-63
2024/01/02 11:13:05;;;;;;;0.00;0.00;;;6.90;99.90;;;;;;5017893;28;20025;-65
2024/01/02 11:15:35;;;;;;;0.00;0.00;;;7.10;99.90;;;;;;5016488;28;20063;-64
2024/01/02 11:18:03;;;;;;;0.00;0.00;;;7.20;99.90;;;;;;5020932;28;20033;-64
2024/01/02 11:21:05;;;;;;;0.00;0.00;;;7.40;99.90;;;;;;5017632;28;20025;-65
2024/01/02 11:23:37;;;;;;;0.00;0.00;;;7.30;99.90;;;;;;5013188;28;20112;-67
2024/01/02 11:26:14;;;;;;;0.00;0.00;;;7.30;99.90;;;;;;5020677;28;20017;-64
2024/01/02 11:28:41;;;;;;;0.00;0.00;;;7.40;99.90;;;;;;5019568;28;20026;-64
2024/01/02 11:31:13;;;;;;;0.00;0.00;;;7.60;99.90;;;;;;5016128;28;20477;-65
2024/01/02 11:33:57;;;;;;;0.00;0.00;;;7.80;99.90;;;;;;5018475;28;20022;-64
2024/01/02 11:36:32;;;;;;;0.00;0.00;;;8.10;99.90;;;;;;5013348;28;20024;-63
2024/01/02 11:39:09;;;;;;;0.00;0.00;;;8.10;99.90;;;;;;5016195;28;20026;-63
2024/01/02 11:41:46;;;;;;;0.00;0.00;;;8.30;99.90;;;;;;5022231;28;20021;-64
2024/01/02 11:44:24;;;;;;;0.00;0.00;;;8.40;99.90;;;;;;5016254;28;20033;-63
2024/01/02 11:46:57;;;;;;;0.00;0.00;;;8.60;99.90;;;;;;5013263;28;20085;-65
2024/01/02 11:49:25;;;;;;;0.35;0.35;;;8.60;99.90;;;;;;5016555;28;20014;-64
2024/01/02 11:52:05;;;;;;;0.00;0.00;;;8.70;99.90;;;;;;5015637;28;20097;-64
2024/01/02 11:54:33;;;;;;;0.00;0.00;;;8.70;99.90;;;;;;5016647;28;20033;-64
2024/01/02 11:56:59;;;;;;;0.00;0.00;;;8.70;99.90;;;;;;5017263;28;20087;-64
2024/01/02 11:59:46;;;;;;;0.00;0.00;;;8.70;99.90;;;;;;5011507;28;20646;-64
2024/01/02 12:02:24;;;;;;;0.00;0.00;;;8.70;99.90;;;;;;5011324;28;20034;-64
2024/01/02 12:05:10;;;;;;;0.00;0.00;;;8.90;99.90;;;;;;5015040;28;20036;-64
2024/01/02 12:07:38;;;;;;;0.00;0.00;;;8.60;99.90;;;;;;5013469;28;20025;-64
2024/01/02 12:10:05;;;;;;;0.00;0.00;;;8.60;99.90;;;;;;5011300;28;20156;-66
2024/01/02 12:12:53;;;;;;;0.00;0.00;;;8.70;99.90;;;;;;5022565;28;20599;-64
2024/01/02 12:15:24;;;;;;;0.00;0.00;;;8.80;99.90;;;;;;5017056;28;20029;-64
2024/01/02 12:17:58;;;;;;;0.00;0.00;;;8.90;99.90;;;;;;5021176;28;20049;-65
2024/01/02 12:20:25;;;;;;;0.00;0.00;;;8.80;99.60;;;;;;5015668;28;20848;-63
2024/01/02 12:22:52;;;;;;;0.00;0.00;;;8.90;99.30;;;;;;5020097;28;20030;-63
2024/01/02 12:25:19;;;;;;;0.00;0.00;;;8.90;99.90;;;;;;5019416;28;20500;-64
2024/01/02 12:27:49;;;;;;;0.00;0.00;;;8.90;99.70;;;;;;5019926;28;20120;-64
2024/01/02 12:30:56;;;;;;;0.00;0.00;;;8.80;99.40;;;;;;5025225;28;20040;-66
2024/01/02 12:33:35;;;;;;;0.00;0.00;;;8.80;99.90;;;;;;5017881;28;20064;-65
2024/01/02 12:36:04;;;;;;;0.00;0.00;;;8.80;99.00;;;;;;5018681;28;20029;-64
2024/01/02 12:38:46;;;;;;;0.00;0.00;;;8.70;99.80;;;;;;5023438;28;20473;-65
2024/01/02 12:41:18;;;;;;;0.00;0.00;;;8.80;99.40;;;;;;5018505;28;20033;-64
2024/01/02 12:43:47;;;;;;;0.00;0.00;;;9.10;99.20;;;;;;5020847;28;20032;-65
2024/01/02 12:46:17;;;;;;;0.00;0.00;;;9.20;99.40;;;;;;5019732;28;20101;-66
2024/01/02 12:49:17;;;;;;;0.00;0.00;;;9.10;99.50;;;;;;5014721;28;20088;-65
2024/01/02 12:51:47;;;;;;;0.00;0.00;;;9.10;99.90;;;;;;5011096;28;20109;-65
2024/01/02 12:54:20;;;;;;;0.00;0.00;;;9.00;99.90;;;;;;5017174;28;20029;-64
2024/01/02 12:57:11;;;;;;;0.00;0.00;;;9.10;99.70;;;;;;5020012;28;20024;-66
2024/01/02 12:59:37;;;;;;;0.00;0.00;;;9.00;99.60;;;;;;5017071;28;20046;-64
2024/01/02 13:02:07;;;;;;;0.00;0.00;;;8.90;99.90;;;;;;5019237;28;20033;-64
2024/01/02 13:04:35;;;;;;;0.00;0.00;;;8.90;99.80;;;;;;5021678;28;20116;-65
2024/01/02 13:07:06;;;;;;;0.00;0.00;;;8.90;99.60;;;;;;5020378;28;20639;-67
2024/01/02 13:09:33;;;;;;;0.00;0.00;;;8.80;99.50;;;;;;5019062;28;20342;-65
2024/01/02 13:12:01;;;;;;;0.00;0.00;;;8.70;99.10;;;;;;5020868;28;20017;-66
2024/01/02 13:14:27;;;;;;;0.00;0.00;;;8.80;99.30;;;;;;5018228;28;20029;-66
2024/01/02 13:16:53;;;;;;;0.00;0.00;;;9.00;99.80;;;;;;5021704;28;20464;-66
2024/01/02 13:19:21;;;;;;;0.00;0.00;;;9.00;99.90;;;;;;5016879;28;20033;-67
2024/01/02 13:21:50;;;;;;;0.00;0.00;;;9.10;99.30;;;;;;5016037;28;20112;-66
2024/01/02 13:24:16;;;;;;;0.00;0.00;;;9.10;99.40;;;;;;5016393;28;20472;-67
2024/01/02 13:26:46;;;;;;;0.77;0.77;;;9.10;99.80;;;;;;5024968;28;20045;-66
2024/01/02 13:29:15;;;;;;;0.00;0.00;;;8.90;99.80;;;;;;5019737;28;20036;-66
2024/01/02 13:31:43;;;;;;;0.00;0.00;;;9.00;99.90;;;;;;5022976;28;20022;-66
2024/01/02 13:34:25;;;;;;;0.00;0.00;;;8.90;99.90;;;;;;5016550;28;20033;-67
2024/01/02 13:36:53;;;;;;;0.00;0.00;;;8.80;99.90;;;;;;5021039;28;20091;-67
2024/01/02 13:39:36;;;;;;;0.00;0.00;;;8.70;99.90;;;;;;5015531;28;20060;-66
2024/01/02 13:42:02;;;;;;;0.05;0.05;;;8.70;99.90;;;;;;5013593;28;20033;-66
2024/01/02 13:44:39;;;;;;;0.00;0.00;;;8.70;99.90;;;;;;5015049;28;20036;-66
2024/01/02 13:47:06;;;;;;;0.00;0.00;;;8.60;99.90;;;;;;5017159;28;20431;-66
2024/01/02 13:49:46;;;;;;;0.00;0.00;;;8.60;99.90;;;;;;5016854;28;20125;-67
2024/01/02 13:52:12;;;;;;;0.00;0.00;;;8.40;99.90;;;;;;5015365;28;20036;-66
2024/01/02 13:54:42;;;;;;;0.00;0.00;;;8.40;99.90;;;;;;5019274;28;20029;-66
2024/01/02 13:57:08;;;;;;;0.00;0.00;;;8.40;99.90;;;;;;5016111;28;20033;-67
2024/01/02 13:59:34;;;;;;;0.00;0.00;;;8.40;99.90;;;;;;5024150;28;20078;-67
2024/01/02 14:02:11;;;;;;;0.00;0.00;;;8.30;99.90;;;;;;5016646;28;20029;-67
2024/01/02 14:04:36;;;;;;;0.00;0.00;;;8.10;99.90;;;;;;5015917;28;20037;-68
2024/01/02 14:07:03;;;;;;;0.00;0.00;;;8.20;99.90;;;;;;5015490;28;20037;-68
2024/01/02 14:09:29;;;;;;;0.00;0.00;;;8.20;99.90;;;;;;5020650;28;20037;-68
2024/01/02 14:12:03;;;;;;;0.00;0.00;;;8.00;99.90;;;;;;5014409;28;21327;-68
2024/01/02 14:14:48;;;;;;;0.00;0.00;;;8.00;99.90;;;;;;5018032;28;20029;-68
2024/01/02 14:17:29;;;;;;;0.00;0.00;;;7.90;99.90;;;;;;5017822;28;20117;-68
2024/01/02 14:20:01;;;;;;;0.00;0.00;;;7.90;99.90;;;;;;5014193;28;20028;-67
2024/01/02 14:23:06;;;;;;;0.00;0.00;;;7.80;99.90;;;;;;5017079;28;20026;-67
2024/01/02 14:25:32;;;;;;;0.38;0.38;;;7.80;99.90;;;;;;4985393;28;20068;-67
2024/01/02 14:28:10;;;;;;;0.00;0.00;;;7.80;99.90;;;;;;5013748;28;20583;-68
2024/01/02 14:30:37;;;;;;;0.00;0.00;;;7.80;99.90;;;;;;5018974;28;20033;-68
2024/01/02 14:33:36;;;;;;;0.00;0.00;;;7.80;99.90;;;;;;5015750;28;20100;-68
2024/01/02 14:36:08;;;;;;;0.00;0.00;;;7.70;99.90;;;;;;5019145;28;20021;-68
2024/01/02 14:39:06;;;;;;;0.00;0.00;;;7.60;99.90;;;;;;5015402;28;20013;-68
2024/01/02 14:41:49;;;;;;;0.00;0.00;;;7.50;99.90;;;;;;5002348;28;20095;-67
2024/01/02 14:44:19;;;;;;;0.00;0.00;;;7.50;99.90;;;;;;5016684;28;20067;-68
2024/01/02 14:47:03;;;;;;;0.00;0.00;;;7.50;99.90;;;;;;5015620;28;20049;-68
2024/01/02 14:49:32;;;;;;;0.00;0.00;;;7.40;99.90;;;;;;5016632;28;20021;-68
2024/01/02 14:52:15;;;;;;;0.00;0.00;;;7.40;99.90;;;;;;5012814;28;20021;-68
2024/01/02 14:55:26;;;;;;;0.00;0.00;;;7.40;99.90;;;;;;5013022;28;20429;-68
2024/01/02 14:58:14;;;;;;;0.00;0.00;;;7.40;99.90;;;;;;4990777;28;20029;-68
2024/01/02 15:00:44;;;;;;;;;;;7.30;99.90;;;;;;5011820;28;20049;-68
2024/01/02 15:03:39;;;;;;;0.00;0.00;;;7.30;99.90;;;;;;5018611;28;19919;-68
2024/01/02 15:06:09;;;;;;;0.00;0.00;;;7.30;99.90;;;;;;5012848;28;21023;-68
2024/01/02 15:09:04;;;;;;;0.00;0.00;;;7.30;99.90;;;;;;5015924;28;20100;-69
2024/01/02 15:11:48;;;;;;;0.00;0.00;;;7.20;99.90;;;;;;5016841;28;20010;-67
2024/01/02 15:14:42;;;;;;;0.00;0.00;;;7.20;99.90;;;;;;5014750;28;20060;-68
2024/01/02 15:17:09;;;;;;;0.00;0.00;;;7.30;99.90;;;;;;5027810;28;20117;-67
2024/01/02 15:20:12;;;;;;;0.17;0.17;;;7.30;99.90;;;;;;5016236;28;20117;-68
2024/01/02 15:23:11;;;;;;;0.00;0.00;;;7.30;99.90;;;;;;5008337;28;20044;-68
2024/01/02 15:26:01;;;;;;;0.00;0.00;;;7.30;99.90;;;;;;5016493;28;20099;-67
2024/01/02 15:28:36;;;;;;;0.00;0.00;;;7.30;99.90;;;;;;5015166;28;20028;-68
2024/01/02 15:31:04;;;;;;;0.00;0.00;;;7.10;99.90;;;;;;5011863;28;20369;-68
2024/01/02 15:33:54;;;;;;;0.00;0.00;;;7.10;99.90;;;;;;5015346;28;20022;-68
2024/01/02 15:36:24;;;;;;;0.00;0.00;;;6.90;99.90;;;;;;5011685;28;20048;-68
2024/01/02 15:39:03;;;;;;;0.00;0.00;;;6.90;99.90;;;;;;5016774;28;20036;-67
2024/01/02 15:41:31;;;;;;;0.00;0.00;;;6.90;99.90;;;;;;5013814;28;20026;-68
2024/01/02 15:44:17;;;;;;;0.00;0.00;;;6.80;99.90;;;;;;5017148;28;20104;-68
2024/01/02 15:47:04;;;;;;;0.00;0.00;;;6.60;99.90;;;;;;5021181;28;20025;-68
2024/01/02 15:49:37;;;;;;;0.00;0.00;;;6.50;99.90;;;;;;5017832;28;20022;-68
2024/01/02 15:52:03;;;;;;;0.00;0.00;;;6.40;99.90;;;;;;5019189;28;20364;-67
2024/01/02 15:54:35;;;;;;;0.00;0.00;;;6.40;99.90;;;;;;5018015;28;20036;-68
2024/01/02 15:57:07;;;;;;;0.00;0.00;;;6.40;99.90;;;;;;5020438;28;20030;-67
2024/01/02 16:00:05;;;;;;;0.00;0.00;;;6.30;99.90;;;;;;5023256;28;20038;-67
2024/01/02 16:03:02;;;;;;;0.00;0.00;;;6.30;99.90;;;;;;5018017;28;20018;-68
2024/01/02 16:06:00;;;;;;;0.00;0.00;;;6.30;99.90;;;;;;5015571;28;20044;-68
2024/01/02 16:08:54;;;;;;;0.00;0.00;;;6.30;99.90;;;;;;5018440;28;20023;-67
2024/01/02 16:11:43;;;;;;;0.00;0.00;;;6.30;99.90;;;;;;5016784;28;20025;-66
2024/01/02 16:14:37;;;;;;;0.00;0.00;;;6.30;99.90;;;;;;5021093;28;20025;-67
2024/01/02 16:17:33;;;;;;;0.00;0.00;;;6.30;99.90;;;;;;5014362;28;20024;-67
2024/01/02 16:20:10;;;;;;;0.00;0.00;;;6.30;99.90;;;;;;5018856;28;20017;-67
2024/01/02 16:22:54;;;;;;;0.00;0.00;;;6.20;99.90;;;;;;5021474;28;20674;-67
2024/01/02 16:25:38;;;;;;;0.00;0.00;;;6.20;99.90;;;;;;5021292;28;20045;-67
2024/01/02 16:28:07;;;;;;;0.00;0.00;;;6.20;99.90;;;;;;5024596;28;20017;-68
2024/01/02 16:30:37;;;;;;;0.08;0.08;;;6.10;99.90;;;;;;5019331;28;20021;-67
2024/01/02 16:33:06;;;;;;;0.20;0.10;;;6.10;99.90;;;;;;5018029;28;20163;-68
2024/01/02 16:36:10;;;;;;;0.00;0.00;;;6.00;99.90;;;;;;5017469;28;20052;-67
2024/01/02 16:38:40;;;;;;;0.00;0.00;;;5.90;99.90;;;;;;5018948;28;20029;-67
2024/01/02 16:41:06;;;;;;;0.00;0.00;;;5.80;99.90;;;;;;5021410;28;20033;-67
2024/01/02 16:43:37;;;;;;;0.00;0.00;;;5.70;99.90;;;;;;5017962;28;20104;-67
2024/01/02 16:46:04;;;;;;;0.00;0.00;;;5.60;99.90;;;;;;5020237;28;20021;-67
2024/01/02 16:48:30;;;;;;;0.13;0.13;;;5.60;99.90;;;;;;5018421;28;20521;-67
2024/01/02 16:50:56;;;;;;;;;;;5.60;99.90;;;;;;5019040;28;20113;-67
2024/01/02 16:53:24;;;;;;;0.00;0.00;;;5.60;99.90;;;;;;5016561;28;19984;-67
2024/01/02 16:55:52;;;;;;;0.00;0.00;;;5.60;99.90;;;;;;5019780;28;20025;-67
2024/01/02 16:58:28;;;;;;;0.00;0.00;;;5.60;99.90;;;;;;5015780;28;20504;-67
2024/01/02 17:00:56;;;;;;;0.00;0.00;;;5.60;99.90;;;;;;5021996;28;20035;-67
2024/01/02 17:03:23;;;;;;;0.00;0.00;;;5.60;99.90;;;;;;5018388;28;20128;-68
2024/01/02 17:05:52;;;;;;;0.00;0.00;;;5.70;99.90;;;;;;5019622;28;20509;-67
2024/01/02 17:08:23;;;;;;;4.57;0.52;;;5.70;99.90;;;;;;5016623;28;20033;-67
2024/01/02 17:10:49;;;;;;;0.00;0.00;;;5.70;99.90;;;;;;5020451;28;20063;-67
2024/01/02 17:13:17;;;;;;;0.00;0.00;;;5.60;99.90;;;;;;5020845;28;20480;-67
2024/01/02 17:15:44;;;;;;;0.00;0.00;;;5.60;99.90;;;;;;5019055;28;20347;-67
2024/01/02 17:18:12;;;;;;;0.00;0.00;;;5.60;99.90;;;;;;5020823;28;20037;-68
2024/01/02 17:20:39;;;;;;;0.00;0.00;;;5.60;99.90;;;;;;5022219;28;20037;-67
2024/01/02 17:23:09;;;;;;;0.03;0.03;;;5.60;99.90;;;;;;5021880;28;20878;-67
2024/01/02 17:25:36;;;;;;;0.20;0.10;;;5.60;99.90;;;;;;5017619;28;20018;-67
2024/01/02 17:28:04;;;;;;;0.00;0.00;;;5.60;99.90;;;;;;5020079;28;20025;-67
2024/01/02 17:30:30;;;;;;;0.00;0.00;;;5.60;99.90;;;;;;5021507;28;20072;-68
2024/01/02 17:32:58;;;;;;;0.00;0.00;;;5.60;99.90;;;;;;5015067;28;20015;-68
2024/01/02 17:35:32;;;;;;;0.00;0.00;;;5.80;99.90;;;;;;5016696;28;20052;-68
2024/01/02 17:37:59;;;;;;;0.00;0.00;;;5.60;99.90;;;;;;5018342;28;20101;-67
2024/01/02 17:40:27;;;;;;;0.00;0.00;;;5.60;99.90;;;;;;5014566;28;20199;-68
2024/01/02 17:42:53;;;;;;;0.17;0.17;;;5.60;99.90;;;;;;5018060;28;20105;-68
2024/01/02 17:45:27;;;;;;;0.00;0.00;;;5.60;99.90;;;;;;5017563;28;20124;-68
2024/01/02 17:48:06;;;;;;;0.00;0.00;;;5.70;99.90;;;;;;5014537;28;20029;-68
2024/01/02 17:50:32;;;;;;;0.32;0.10;;;5.70;99.90;;;;;;5018742;28;20353;-69
2024/01/02 17:52:58;;;;;;;;;;;5.70;99.90;;;;;;5018010;28;20113;-68
2024/01/02 17:55:27;;;;;;;0.00;0.00;;;5.70;99.90;;;;;;5017410;28;19995;-68
2024/01/02 17:58:18;;;;;;;0.00;0.00;;;5.60;99.90;;;;;;5017722;28;20197;-68
2024/01/02 18:00:52;;;;;;;0.00;0.00;;;5.60;99.90;;;;;;5013192;28;20053;-67
2024/01/02 18:03:43;;;;;;;0.00;0.00;;;5.60;99.90;;;;;;5015865;28;20373;-68
2024/01/02 18:06:17;;;;;;;0.00;0.00;;;5.60;99.90;;;;;;5016118;28;20029;-67
2024/01/02 18:09:19;;;;;;;0.30;0.30;;;5.60;99.90;;;;;;5013299;28;20060;-68
2024/01/02 18:12:16;;;;;;;0.00;0.00;;;5.60;99.90;;;;;;5013806;28;20037;-68
2024/01/02 18:15:10;;;;;;;0.00;0.00;;;5.60;99.90;;;;;;5014695;28;20396;-67
2024/01/02 18:17:58;;;;;;;0.15;0.15;;;5.60;99.90;;;;;;5018207;28;20124;-67
2024/01/02 18:20:54;;;;;;;0.00;0.00;;;5.50;99.90;;;;;;5017572;28;20030;-68
2024/01/02 18:23:27;;;;;;;0.00;0.00;;;5.60;99.90;;;;;;5015742;28;20448;-68
2024/01/02 18:26:03;;;;;;;0.00;0.00;;;5.60;99.90;;;;;;5016890;28;20579;-67
2024/01/02 18:28:39;;;;;;;0.00;0.00;;;5.60;99.90;;;;;;5016639;28;20044;-68
2024/01/02 18:31:25;;;;;;;0.00;0.00;;;5.50;99.90;;;;;;5017775;28;20079;-68
2024/01/02 18:34:23;;;;;;;0.00;0.00;;;5.50;99.90;;;;;;5018575;28;20018;-67
2024/01/02 18:37:09;;;;;;;0.43;0.28;;;5.50;99.90;;;;;;5016087;28;20017;-68
2024/01/02 18:39:47;;;;;;;0.00;0.00;;;5.50;99.90;;;;;;5020598;28;20109;-66
2024/01/02 18:42:35;;;;;;;0.00;0.00;;;5.50;99.90;;;;;;5014476;28;20439;-65
2024/01/02 18:45:29;;;;;;;0.00;0.00;;;5.50;99.90;;;;;;5017808;28;20543;-66
2024/01/02 18:47:58;;;;;;;0.00;0.00;;;5.40;99.90;;;;;;5018785;28;20485;-66
2024/01/02 18:50:24;;;;;;;0.00;0.00;;;5.40;99.90;;;;;;5017165;28;20021;-65
2024/01/02 18:53:06;;;;;;;;;;;5.40;99.90;;;;;;5016611;28;20025;-67
2024/01/02 18:55:32;;;;;;;0.00;0.00;;;5.50;99.90;;;;;;5016139;28;20375;-65
2024/01/02 18:57:57;;;;;;;0.00;0.00;;;5.50;99.90;;;;;;5017895;28;20021;-64
2024/01/02 19:00:23;;;;;;;0.00;0.00;;;5.50;99.90;;;;;;5015629;28;20488;-65
2024/01/02 19:02:50;;;;;;;0.00;0.00;;;5.40;99.90;;;;;;5018645;28;20103;-66
2024/01/02 19:05:37;;;;;;;0.00;0.00;;;5.40;99.90;;;;;;5017370;28;20030;-66
2024/01/02 19:08:16;;;;;;;0.95;0.20;;;5.70;99.90;;;;;;5016640;28;20025;-66
2024/01/02 19:10:42;;;;;;;0.00;0.00;;;6.10;99.90;;;;;;5015028;28;20022;-65
2024/01/02 19:13:10;;;;;;;0.00;0.00;;;6.00;99.90;;;;;;5017886;28;20014;-66
2024/01/02 19:15:39;;;;;;;0.00;0.00;;;5.90;99.90;;;;;;5021546;28;20136;-65
2024/01/02 19:18:06;;;;;;;0.00;0.00;;;5.70;99.90;;;;;;5015508;28;20040;-67
2024/01/02 19:20:39;;;;;;;1.45;0.80;;;5.70;99.90;;;;;;5017054;28;20017;-65
2024/01/02 19:23:06;;;;;;;0.00;0.00;;;5.60;99.90;;;;;;5016434;28;21374;-66
2024/01/02 19:25:32;;;;;;;0.00;0.00;;;5.60;99.90;;;;;;5020042;28;20029;-65
2024/01/02 19:28:11;;;;;;;0.00;0.00;;;5.50;99.90;;;;;;5014425;28;20147;-66
2024/01/02 19:30:50;;;;;;;0.00;0.00;;;5.50;99.90;;;;;;5018182;28;20034;-65
2024/01/02 19:33:15;;;;;;;0.00;0.00;;;5.50;99.90;;;;;;5024089;28;20075;-66
2024/01/02 19:35:41;;;;;;;0.00;0.00;;;5.50;99.90;;;;;;5018072;28;20373;-65
2024/01/02 19:38:07;;;;;;;0.00;0.00;;;5.50;99.90;;;;;;5016920;28;20026;-66
2024/01/02 19:40:33;;;;;;;0.00;0.00;;;5.50;99.90;;;;;;5014757;28;20759;-65
2024/01/02 19:42:59;;;;;;;0.00;0.00;;;5.40;99.90;;;;;;5015337;28;20057;-66
2024/01/02 19:45:24;;;;;;;0.00;0.00;;;5.40;99.90;;;;;;5017165;28;20164;-66
2024/01/02 19:47:50;;;;;;;0.00;0.00;;;5.40;99.90;;;;;;5014966;28;20030;-66
2024/01/02 19:50:16;;;;;;;0.00;0.00;;;5.40;99.90;;;;;;5016200;28;20025;-64
2024/01/02 19:52:42;;;;;;;0.10;0.10;;;5.40;99.90;;;;;;5016266;28;20025;-65
2024/01/02 19:55:08;;;;;;;0.00;0.00;;;5.50;99.90;;;;;;5019566;28;20048;-64
2024/01/02 19:57:35;;;;;;;1.70;1.20;;;5.40;99.90;;;;;;5010540;28;20045;-65
2024/01/02 20:00:02;;;;;;;0.00;0.00;;;5.50;99.90;;;;;;5017067;28;20036;-66
2024/01/02 20:02:30;;;;;;;;;;;5.40;99.90;;;;;;5015788;28;20025;-66
2024/01/02 20:04:56;;;;;;;0.00;0.00;;;5.40;99.90;;;;;;5013453;28;20000;-65
2024/01/02 20:07:29;;;;;;;0.43;0.17;;;5.40;99.90;;;;;;5013855;28;20667;-65
2024/01/02 20:10:03;;;;;;;0.00;0.00;;;5.40;99.90;;;;;;5014923;28;20040;-65
2024/01/02 20:12:39;;;;;;;0.00;0.00;;;5.40;99.90;;;;;;5010846;28;20029;-65
2024/01/02 20:15:20;;;;;;;0.00;0.00;;;5.50;99.90;;;;;;5014244;28;20029;-65
2024/01/02 20:17:52;;;;;;;0.00;0.00;;;5.50;99.90;;;;;;5016804;28;20115;-65
2024/01/02 20:20:39;;;;;;;0.00;0.00;;;5.50;99.90;;;;;;5015713;28;20084;-65
2024/01/02 20:23:14;;;;;;;0.00;0.00;;;5.50;99.90;;;;;;5009740;28;20168;-66
2024/01/02 20:25:46;;;;;;;0.00;0.00;;;5.50;99.90;;;;;;5012599;28;20041;-67
2024/01/02 20:28:13;;;;;;;0.00;0.00;;;5.60;99.90;;;;;;5016371;28;20465;-65
2024/01/02 20:30:39;;;;;;;0.05;0.05;;;5.60;99.90;;;;;;5017003;28;20025;-65
2024/01/02 20:33:22;;;;;;;0.00;0.00;;;5.60;99.90;;;;;;5022886;28;20040;-65
2024/01/02 20:35:48;;;;;;;0.00;0.00;;;5.60;99.90;;;;;;5024682;28;20017;-65
2024/01/02 20:38:26;;;;;;;0.00;0.00;;;5.70;99.90;;;;;;5014721;28;20075;-65
2024/01/02 20:40:52;;;;;;;0.00;0.00;;;5.80;99.90;;;;;;5018151;28;20071;-65
2024/01/02 20:43:32;;;;;;;0.00;0.00;;;5.80;99.90;;;;;;5016020;28;20045;-67
2024/01/02 20:46:04;;;;;;;0.00;0.00;;;5.80;99.90;;;;;;5019925;28;20021;-65
2024/01/02 20:48:32;;;;;;;0.00;0.00;;;5.70;99.90;;;;;;5022616;28;20540;-65
2024/01/02 20:51:02;;;;;;;0.00;0.00;;;5.80;99.90;;;;;;5018452;28;20025;-65
2024/01/02 20:53:42;;;;;;;0.00;0.00;;;5.80;99.90;;;;;;5017894;28;20022;-65
2024/01/02 20:56:26;;;;;;;0.00;0.00;;;5.80;99.90;;;;;;5023393;28;20368;-65
2024/01/02 20:58:52;;;;;;;0.10;0.10;;;5.80;99.90;;;;;;5014972;28;20029;-68
2024/01/02 21:01:17;;;;;;;0.00;0.00;;;5.80;99.90;;;;;;5020250;28;20021;-68